Time;durP1;ratioP1;P1;durP2;ratioP2;P2;SDS_P1;SDS_P2;PMS_P1;PMS_P2;Temp;Humidity;BMP_temperature;BMP_pressure;BME280_temperature;BME280_humidity;BME280_pressure;Samples;Min_cycle;Max_cycle;Signal;HPM_P1;HPM_P2
2023/03/08 11:24:18;;;;;;;91.75;57.47;;;;;;;19.78;45.40;98998.44;5016029;27;3231456;-46
2023/03/08 11:26:50;;;;;;;80.03;52.95;;;;;;;20.80;42.85;98999.94;5106877;28;20047;-46
2023/03/08 11:29:40;;;;;;;81.47;52.13;;;;;;;21.60;40.95;99008.09;5089988;28;20114;-46
2023/03/08 11:32:16;;;;;;;84.60;51.83;;;;;;;22.15;39.68;99017.22;5107850;28;20028;-47
2023/03/08 11:34:52;;;;;;;78.97;49.50;;;;;;;22.61;39.21;99021.97;5109028;28;20359;-47
2023/03/08 11:37:38;;;;;;;86.15;48.83;;;;;;;22.85;38.30;99016.44;5106265;28;20032;-46
2023/03/08 11:40:24;;;;;;;75.55;45.40;;;;;;;22.95;38.35;99020.66;5109054;28;20038;-48
2023/03/08 11:43:16;;;;;;;74.88;46.80;;;;;;;23.12;38.01;99019.56;5083470;28;20039;-46
2023/03/08 11:45:51;;;;;;;70.78;45.40;;;;;;;23.17;37.67;99018.59;5109544;28;20385;-48
2023/03/08 11:48:29;;;;;;;75.07;45.28;;;;;;;23.29;37.65;99003.66;5109420;28;20028;-47
2023/03/08 11:51:10;;;;;;;74.95;46.97;;;;;;;23.35;37.42;99009.66;5109147;28;20020;-46
2023/03/08 11:54:05;;;;;;;77.50;48.25;;;;;;;23.35;37.15;99000.94;5091416;28;20527;-47
2023/03/08 11:56:37;;;;;;;77.05;46.17;;;;;;;23.35;36.85;98996.56;5101045;28;20040;-47
2023/03/08 11:59:34;;;;;;;74.75;45.53;;;;;;;23.43;36.98;98998.19;5091022;28;20060;-46
2023/03/08 12:02:02;;;;;;;73.57;46.08;;;;;;;23.39;37.42;99002.63;5108648;28;20024;-50
2023/03/08 12:04:39;;;;;;;77.30;46.25;;;;;;;23.43;37.39;99004.31;5109025;28;20495;-47
2023/03/08 12:07:27;;;;;;;70.93;45.35;;;;;;;23.59;36.62;99001.44;5090713;28;20389;-47
2023/03/08 12:10:01;;;;;;;73.80;43.40;;;;;;;23.54;37.14;98995.41;5098042;28;20123;-45
2023/03/08 12:12:35;;;;;;;66.73;43.53;;;;;;;23.57;37.11;98997.97;5106196;28;20027;-45
2023/03/08 12:15:23;;;;;;;75.53;45.57;;;;;;;23.66;36.92;99000.47;5108628;28;20113;-46
2023/03/08 12:18:14;;;;;;;72.28;43.00;;;;;;;23.57;37.02;99000.59;5100598;28;20032;-46
2023/03/08 12:20:45;;;;;;;73.05;46.45;;;;;;;23.56;37.08;98984.03;5093213;28;20106;-46
2023/03/08 12:23:51;;;;;;;73.13;45.78;;;;;;;23.63;37.14;99003.13;5108575;28;20048;-48
2023/03/08 12:26:25;;;;;;;71.78;45.03;;;;;;;23.64;37.03;99012.72;5103831;28;20115;-49
2023/03/08 12:29:01;;;;;;;63.00;43.53;;;;;;;23.60;37.30;99006.63;5086550;28;20050;-48
2023/03/08 12:31:37;;;;;;;67.95;42.50;;;;;;;23.61;37.49;99018.00;5090366;28;20124;-46
2023/03/08 12:34:22;;;;;;;62.95;40.85;;;;;;;23.62;37.00;99017.09;5083931;28;20450;-46
2023/03/08 12:36:51;;;;;;;66.25;41.90;;;;;;;23.70;37.47;99004.72;5059816;28;20036;-47
2023/03/08 12:39:32;;;;;;;68.22;42.28;;;;;;;23.72;37.20;99010.81;5094704;28;20516;-46
2023/03/08 12:42:10;;;;;;;62.63;38.67;;;;;;;23.65;37.42;99004.81;5091260;28;20031;-48
2023/03/08 12:44:39;;;;;;;63.67;40.90;;;;;;;23.58;37.25;99011.03;5092359;28;20429;-51
2023/03/08 12:47:12;;;;;;;61.45;39.30;;;;;;;23.72;37.24;99007.34;5094213;28;20023;-46
2023/03/08 12:49:44;;;;;;;57.28;37.17;;;;;;;23.76;37.13;98995.91;5094717;28;20485;-46
2023/03/08 12:52:33;;;;;;;61.60;38.28;;;;;;;23.77;37.21;99000.25;5057551;28;20113;-46
2023/03/08 12:55:22;;;;;;;66.22;39.15;;;;;;;23.80;37.32;99002.81;5072337;28;20047;-47
2023/03/08 12:57:53;;;;;;;64.22;39.53;;;;;;;23.75;37.22;99000.28;5057650;28;20025;-47
2023/03/08 13:00:22;;;;;;;69.28;39.08;;;;;;;23.78;37.44;99005.47;5094380;28;20047;-45
2023/03/08 13:03:13;;;;;;;66.53;38.42;;;;;;;23.79;37.28;99011.56;5094170;28;20024;-46
2023/03/08 13:05:46;;;;;;;63.85;37.10;;;;;;;23.74;37.28;99002.94;5078935;28;20061;-46
2023/03/08 13:08:13;;;;;;;63.17;39.35;;;;;;;23.86;37.09;99009.72;5094344;28;20031;-46
2023/03/08 13:10:57;;;;;;;62.17;37.55;;;;;;;23.80;37.33;99008.94;5094606;28;20058;-47
2023/03/08 13:13:34;;;;;;;64.90;37.13;;;;;;;23.85;37.20;99007.97;5076378;28;20081;-50
2023/03/08 13:16:23;;;;;;;65.05;38.00;;;;;;;23.89;37.10;99004.41;5093800;28;20016;-45
2023/03/08 13:19:00;;;;;;;65.78;38.60;;;;;;;23.93;37.21;99008.72;5074264;28;20028;-46
2023/03/08 13:21:34;;;;;;;64.05;38.33;;;;;;;23.86;37.25;99001.84;5094250;28;20410;-46
2023/03/08 13:24:26;;;;;;;67.60;39.53;;;;;;;23.84;37.05;99009.75;5068894;28;20053;-46
2023/03/08 13:27:11;;;;;;;72.20;40.15;;;;;;;23.87;37.16;99003.56;5046330;28;20040;-46
2023/03/08 13:29:38;;;;;;;63.30;37.33;;;;;;;23.86;36.97;98996.63;5053825;28;20033;-45
2023/03/08 13:32:14;;;;;;;70.65;41.80;;;;;;;23.85;36.94;99007.97;5053875;28;20114;-47
2023/03/08 13:34:45;;;;;;;71.60;42.83;;;;;;;23.89;37.00;99007.03;5054017;28;20029;-46
2023/03/08 13:37:32;;;;;;;74.40;44.08;;;;;;;23.99;37.04;99011.28;5054058;28;20029;-46
2023/03/08 13:40:01;;;;;;;71.13;43.75;;;;;;;23.95;37.26;99002.56;5045250;28;20037;-46
2023/03/08 13:42:30;;;;;;;74.28;43.67;;;;;;;23.97;36.95;99002.56;5053600;28;20397;-45
2023/03/08 13:45:17;;;;;;;71.90;42.78;;;;;;;23.97;37.11;98999.97;5053998;28;20021;-46
2023/03/08 13:47:47;;;;;;;78.15;46.72;;;;;;;23.97;37.00;99007.81;5054025;28;20463;-45
2023/03/08 13:50:23;;;;;;;71.90;42.05;;;;;;;23.96;37.07;99004.31;5053912;28;20375;-48
2023/03/08 13:52:52;;;;;;;76.13;41.75;;;;;;;23.99;36.95;98998.19;5054472;28;20394;-45
2023/03/08 13:55:25;;;;;;;72.32;41.80;;;;;;;23.96;37.12;99004.31;5069192;28;20115;-50
2023/03/08 13:57:54;;;;;;;79.57;43.70;;;;;;;23.94;37.18;99007.84;5052688;28;20029;-46
2023/03/08 14:00:35;;;;;;;71.88;43.90;;;;;;;24.00;37.17;99001.66;5052495;28;20021;-47
2023/03/08 14:03:06;;;;;;;75.70;42.50;;;;;;;23.99;36.90;99011.28;5052359;28;20056;-47
2023/03/08 14:05:42;;;;;;;69.43;40.42;;;;;;;23.95;37.29;98996.47;5069187;28;20029;-46
2023/03/08 14:08:23;;;;;;;69.53;40.53;;;;;;;23.99;37.24;99013.91;5053473;28;20021;-47
2023/03/08 14:11:01;;;;;;;71.03;42.08;;;;;;;23.88;37.26;99005.31;5053749;28;20029;-46
2023/03/08 14:13:33;;;;;;;68.55;40.75;;;;;;;23.91;37.33;99015.72;5054408;28;20036;-47
2023/03/08 14:16:03;;;;;;;75.50;42.63;;;;;;;23.94;37.05;99015.69;5053627;28;20394;-46
2023/03/08 14:18:42;;;;;;;82.15;45.30;;;;;;;23.93;37.30;99014.81;5053552;28;20028;-46
2023/03/08 14:21:24;;;;;;;72.55;44.15;;;;;;;23.87;37.37;99019.28;5054315;28;20025;-46
2023/03/08 14:23:55;;;;;;;79.32;42.53;;;;;;;23.83;37.43;99023.72;5070991;28;20052;-46
2023/03/08 14:26:28;;;;;;;76.22;43.97;;;;;;;23.79;37.03;99028.16;5072317;28;20025;-46
2023/03/08 14:29:18;;;;;;;75.65;43.72;;;;;;;23.89;37.05;99015.78;5072030;28;20031;-47
2023/03/08 14:31:59;;;;;;;77.05;45.30;;;;;;;23.88;37.34;99006.19;5064636;28;20482;-47
2023/03/08 14:34:35;;;;;;;76.28;45.33;;;;;;;23.83;36.96;99003.63;5073467;28;20052;-50
2023/03/08 14:37:25;;;;;;;73.25;42.50;;;;;;;23.67;37.21;99005.66;5072113;28;20028;-48
2023/03/08 14:39:56;;;;;;;71.90;43.35;;;;;;;23.77;37.30;98998.50;5072914;28;20024;-48
2023/03/08 14:42:41;;;;;;;74.03;43.45;;;;;;;23.77;36.92;99000.25;5071965;28;20025;-49
2023/03/08 14:45:28;;;;;;;;;;;;;;;23.93;37.00;98993.00;5072470;28;20029;-50
2023/03/08 14:47:58;;;;;;;76.22;46.33;;;;;;;23.85;36.72;98979.16;5069148;28;19939;-50
2023/03/08 14:50:30;;;;;;;79.80;44.85;;;;;;;23.85;36.68;98969.56;5071923;28;20025;-48
2023/03/08 14:53:00;;;;;;;76.47;47.33;;;;;;;23.74;36.81;98959.28;5073030;28;20024;-49
2023/03/08 14:55:32;;;;;;;77.68;47.20;;;;;;;23.71;37.17;98946.25;5072799;28;20029;-49
2023/03/08 14:58:03;;;;;;;78.22;44.78;;;;;;;23.76;37.08;98947.03;5072601;28;20474;-48
2023/03/08 15:00:32;;;;;;;74.97;46.08;;;;;;;23.83;36.80;98950.41;5073057;28;20058;-49
2023/03/08 15:03:01;;;;;;;76.75;44.72;;;;;;;23.83;36.50;98938.16;5071467;28;20029;-49
2023/03/08 15:05:30;;;;;;;81.13;48.45;;;;;;;23.90;36.71;98940.69;5072870;28;20032;-49
2023/03/08 15:07:59;;;;;;;79.15;48.63;;;;;;;23.93;36.66;98928.38;5072330;28;20024;-50
2023/03/08 15:10:38;;;;;;;81.88;48.05;;;;;;;23.76;37.04;98923.47;5072799;28;20073;-47
2023/03/08 15:13:18;;;;;;;83.07;47.90;;;;;;;23.77;36.63;98922.59;5072904;28;20024;-49
2023/03/08 15:15:47;;;;;;;75.82;46.00;;;;;;;23.62;36.70;98905.41;5071516;28;20025;-51
2023/03/08 15:18:15;;;;;;;84.00;47.42;;;;;;;23.67;37.05;98921.00;5072826;28;20027;-48
2023/03/08 15:20:48;;;;;;;82.32;51.63;;;;;;;23.64;37.12;98919.31;5073018;28;20020;-48
2023/03/08 15:23:22;;;;;;;82.05;50.80;;;;;;;23.65;36.79;98917.59;5071511;28;20041;-49
2023/03/08 15:25:51;;;;;;;88.40;49.67;;;;;;;23.74;36.83;98903.47;5072895;28;20035;-48
2023/03/08 15:28:21;;;;;;;89.05;50.70;;;;;;;23.73;36.99;98902.59;5072882;28;20041;-48
2023/03/08 15:30:51;;;;;;;75.68;46.80;;;;;;;23.57;37.22;98901.13;5072096;28;20025;-46
2023/03/08 15:33:21;;;;;;;76.65;47.47;;;;;;;23.55;37.26;98903.81;5073006;28;20139;-47
2023/03/08 15:35:50;;;;;;;88.30;52.70;;;;;;;23.61;37.23;98892.34;5071337;28;20040;-48
2023/03/08 15:38:20;;;;;;;72.03;46.10;;;;;;;23.60;37.28;98881.00;5072867;28;20021;-49
2023/03/08 15:40:49;;;;;;;88.03;50.20;;;;;;;23.52;36.93;98880.28;5072746;28;20474;-52
2023/03/08 15:43:17;;;;;;;84.03;50.85;;;;;;;23.51;37.22;98871.56;5072265;28;20043;-48
2023/03/08 15:45:45;;;;;;;93.60;51.85;;;;;;;23.55;37.29;98868.91;5069848;28;20086;-52
2023/03/08 15:48:16;;;;;;;78.38;45.95;;;;;;;23.53;37.52;98874.16;5070804;28;20115;-48
2023/03/08 15:50:43;;;;;;;84.38;49.88;;;;;;;23.57;37.09;98869.75;5065397;28;20115;-51
2023/03/08 15:53:12;;;;;;;81.93;50.42;;;;;;;23.51;37.47;98876.81;5025391;28;20112;-49
2023/03/08 15:55:39;;;;;;;84.43;48.00;;;;;;;23.51;37.80;98870.72;5023802;28;20029;-51
2023/03/08 15:58:07;;;;;;;82.82;47.72;;;;;;;23.57;37.73;98878.47;5022162;28;20390;-52
2023/03/08 16:00:34;;;;;;;92.05;47.13;;;;;;;23.66;37.38;98887.91;5024265;28;20017;-52
2023/03/08 16:03:01;;;;;;;92.03;51.47;;;;;;;23.51;37.43;98902.13;5023054;28;20486;-52
2023/03/08 16:05:30;;;;;;;85.30;50.40;;;;;;;23.45;37.51;98903.09;5020248;28;20021;-51
2023/03/08 16:08:01;;;;;;;81.07;50.33;;;;;;;23.35;37.75;98901.50;5023469;28;20445;-53
2023/03/08 16:10:32;;;;;;;88.97;52.33;;;;;;;23.37;37.79;98891.88;5022347;28;20087;-50
2023/03/08 16:12:59;;;;;;;80.45;48.22;;;;;;;23.31;37.97;98899.84;5023137;28;20078;-51
2023/03/08 16:15:27;;;;;;;80.28;49.00;;;;;;;23.57;37.27;98898.53;5023833;28;20026;-52
2023/03/08 16:17:54;;;;;;;73.57;44.47;;;;;;;23.73;37.24;98899.13;5025974;28;20033;-49
2023/03/08 16:20:22;;;;;;;75.47;43.42;;;;;;;23.77;37.09;98896.41;5024568;28;20060;-49
2023/03/08 16:22:50;;;;;;;70.25;41.80;;;;;;;23.76;37.14;98897.31;5033825;28;20094;-49
2023/03/08 16:25:17;;;;;;;69.20;41.28;;;;;;;23.83;36.52;98896.28;5045396;28;20030;-52
2023/03/08 16:27:44;;;;;;;65.15;40.45;;;;;;;23.82;36.65;98896.31;5046432;28;20034;-51
2023/03/08 16:30:13;;;;;;;70.53;41.67;;;;;;;23.79;36.75;98902.47;5045655;28;20025;-51
2023/03/08 16:32:40;;;;;;;63.88;39.13;;;;;;;23.69;36.79;98895.69;5043483;28;20037;-50
2023/03/08 16:35:08;;;;;;;70.15;41.53;;;;;;;23.70;36.98;98914.88;5046210;28;20033;-51
2023/03/08 16:37:36;;;;;;;69.20;41.25;;;;;;;23.69;37.09;98913.16;5043091;28;20029;-52
2023/03/08 16:40:06;;;;;;;67.03;38.80;;;;;;;23.62;36.71;98917.63;5029212;28;20052;-49
2023/03/08 16:42:33;;;;;;;66.65;40.00;;;;;;;23.75;36.71;98916.50;5046545;28;20048;-49
2023/03/08 16:45:00;;;;;;;60.30;37.92;;;;;;;23.82;36.48;98906.78;5045585;28;20025;-52
2023/03/08 16:47:31;;;;;;;67.97;38.30;;;;;;;23.87;36.47;98910.19;5054427;28;20163;-49
2023/03/08 16:50:00;;;;;;;59.75;38.05;;;;;;;23.83;36.57;98911.13;5055220;28;20134;-49
2023/03/08 16:52:27;;;;;;;62.00;37.58;;;;;;;23.82;36.31;98914.66;5055373;28;20036;-50
2023/03/08 16:54:55;;;;;;;66.50;38.65;;;;;;;23.78;36.15;98906.00;5054907;28;20104;-52
2023/03/08 16:57:24;;;;;;;64.20;38.20;;;;;;;23.72;36.25;98926.19;5037308;28;20071;-50
2023/03/08 16:59:51;;;;;;;68.53;38.78;;;;;;;23.81;36.10;98908.56;5055340;28;20397;-49
2023/03/08 17:02:20;;;;;;;62.22;38.30;;;;;;;23.82;36.53;98905.06;5054706;28;20033;-49
2023/03/08 17:04:48;;;;;;;64.63;37.83;;;;;;;23.90;36.16;98901.41;5054728;28;20052;-50
2023/03/08 17:07:16;;;;;;;61.83;39.00;;;;;;;23.81;36.43;98932.13;5055033;28;20029;-50
2023/03/08 17:09:44;;;;;;;62.35;39.50;;;;;;;23.90;36.37;98932.81;5055152;28;20028;-50
2023/03/08 17:12:12;;;;;;;61.95;36.22;;;;;;;23.87;36.23;98944.22;5054954;28;20025;-50
2023/03/08 17:14:40;;;;;;;61.40;37.40;;;;;;;23.83;35.89;98950.41;5054326;28;20033;-49
2023/03/08 17:17:09;;;;;;;61.03;38.00;;;;;;;23.87;36.31;98962.56;5054244;28;20036;-48
2023/03/08 17:19:36;;;;;;;55.20;35.72;;;;;;;23.81;36.24;98962.66;5054791;28;20025;-50
2023/03/08 17:22:03;;;;;;;55.47;35.28;;;;;;;23.73;36.51;98965.41;5054150;28;20049;-49
2023/03/08 17:24:32;;;;;;;64.47;39.75;;;;;;;23.71;36.52;98977.66;5048155;28;20028;-49
2023/03/08 17:27:00;;;;;;;59.03;36.55;;;;;;;23.66;36.75;98963.81;5043856;28;20049;-49
2023/03/08 17:29:28;;;;;;;60.90;37.35;;;;;;;23.69;36.43;98968.13;5043656;28;20120;-46
2023/03/08 17:31:55;;;;;;;61.22;37.20;;;;;;;23.79;36.31;98977.53;5043100;28;20167;-49
2023/03/08 17:34:22;;;;;;;62.08;39.63;;;;;;;23.73;35.93;98981.13;5045024;28;20044;-49
2023/03/08 17:36:50;;;;;;;68.38;39.88;;;;;;;23.80;35.86;98988.00;5044898;28;20122;-49
2023/03/08 17:39:19;;;;;;;69.90;41.78;;;;;;;23.82;36.04;98998.44;5044962;28;20085;-48
2023/03/08 17:41:47;;;;;;;70.18;45.60;;;;;;;23.77;35.89;99003.75;5039129;28;20037;-50
2023/03/08 17:44:14;;;;;;;73.57;46.35;;;;;;;23.86;35.91;99001.84;5028686;28;20036;-49
2023/03/08 17:46:42;;;;;;;77.90;49.00;;;;;;;23.81;36.17;99001.94;5032815;28;20029;-49
2023/03/08 17:49:11;;;;;;;122.10;83.80;;;;;;;23.76;35.73;98996.78;5033643;28;20037;-49
2023/03/08 17:51:38;;;;;;;128.05;90.63;;;;;;;23.93;35.80;99009.56;5031275;28;20041;-49
2023/03/08 17:54:08;;;;;;;119.80;85.00;;;;;;;23.86;35.61;99013.19;5029418;28;20087;-49
2023/03/08 17:56:37;;;;;;;122.00;83.22;;;;;;;24.00;35.72;99020.81;5024474;28;20112;-48
2023/03/08 17:59:04;;;;;;;117.07;81.30;;;;;;;23.95;35.66;99028.75;5033489;28;20079;-48
2023/03/08 18:01:33;;;;;;;116.65;78.20;;;;;;;24.09;35.54;99027.66;5029774;28;20025;-48
2023/03/08 18:04:00;;;;;;;112.95;77.47;;;;;;;24.10;35.80;99030.28;5031517;28;20037;-49
2023/03/08 18:06:29;;;;;;;107.35;74.72;;;;;;;24.05;35.77;99018.16;5032335;28;20030;-48
2023/03/08 18:08:57;;;;;;;99.72;69.72;;;;;;;24.14;35.29;99024.97;5033040;28;20025;-52
2023/03/08 18:11:25;;;;;;;111.63;71.38;;;;;;;24.29;35.00;99016.81;5031006;28;20439;-48
2023/03/08 18:13:53;;;;;;;97.85;66.15;;;;;;;24.25;35.16;99026.47;5023338;28;20483;-48
2023/03/08 18:16:21;;;;;;;95.85;64.65;;;;;;;24.19;35.29;99031.84;5032095;28;20041;-48
2023/03/08 18:18:49;;;;;;;99.32;66.25;;;;;;;24.21;35.56;99023.97;5032761;28;20026;-48
2023/03/08 18:21:17;;;;;;;105.43;71.78;;;;;;;24.17;35.77;99043.22;5030555;28;20087;-50
2023/03/08 18:23:45;;;;;;;104.40;69.07;;;;;;;24.30;35.50;99047.38;5023107;28;20064;-49
2023/03/08 18:26:15;;;;;;;96.85;67.80;;;;;;;24.21;35.37;99047.53;5032093;28;20067;-50
2023/03/08 18:28:43;;;;;;;111.30;71.32;;;;;;;24.05;35.97;99053.06;5033175;28;20033;-50
2023/03/08 18:31:13;;;;;;;118.45;76.72;;;;;;;23.97;36.08;99053.19;5030724;28;20083;-50
2023/03/08 18:33:40;;;;;;;119.88;77.38;;;;;;;23.88;36.55;99058.56;5023419;28;20364;-49
2023/03/08 18:36:08;;;;;;;134.75;80.90;;;;;;;24.04;35.91;99071.44;5031876;28;20100;-49
2023/03/08 18:38:35;;;;;;;132.75;81.43;;;;;;;23.85;36.40;99062.97;5032540;28;20033;-52
2023/03/08 18:41:13;;;;;;;130.68;81.28;;;;;;;24.04;36.30;99061.78;5031806;28;20018;-48
2023/03/08 18:43:41;;;;;;;134.20;82.10;;;;;;;24.10;36.38;99080.03;5028428;28;20063;-49
2023/03/08 18:46:10;;;;;;;136.60;81.93;;;;;;;24.02;36.41;99096.78;5031763;28;20087;-48
2023/03/08 18:48:38;;;;;;;130.20;79.72;;;;;;;24.05;36.25;99115.91;5022727;28;20464;-50
2023/03/08 18:51:05;;;;;;;122.38;77.13;;;;;;;24.12;36.21;99130.66;5031370;28;20040;-49
2023/03/08 18:53:33;;;;;;;132.40;77.55;;;;;;;24.07;36.69;99145.56;5031166;28;20033;-48
2023/03/08 18:56:02;;;;;;;130.15;74.60;;;;;;;24.02;36.84;99150.00;5031306;28;20368;-52
2023/03/08 18:58:30;;;;;;;123.97;71.40;;;;;;;24.09;36.64;99156.00;5032116;28;20480;-49
2023/03/08 19:00:59;;;;;;;126.93;75.78;;;;;;;24.04;36.80;99168.34;5032124;28;20084;-49
2023/03/08 19:03:27;;;;;;;117.55;72.63;;;;;;;24.12;36.59;99162.09;5023873;28;20091;-49
2023/03/08 19:05:54;;;;;;;116.97;68.63;;;;;;;24.03;36.70;99170.06;5029324;28;20044;-50
2023/03/08 19:08:22;;;;;;;107.97;67.30;;;;;;;24.13;36.71;99168.19;5031312;28;20110;-46
2023/03/08 19:10:49;;;;;;;107.10;64.35;;;;;;;24.08;36.52;99170.88;5031716;28;20053;-47
2023/03/08 19:13:17;;;;;;;110.32;63.58;;;;;;;24.20;36.60;99176.81;5029370;28;20041;-47
2023/03/08 19:15:44;;;;;;;107.40;65.65;;;;;;;24.04;36.80;99176.19;5030867;28;20387;-48
2023/03/08 19:18:11;;;;;;;97.53;59.30;;;;;;;24.23;36.55;99185.50;5031340;28;20026;-47
2023/03/08 19:20:40;;;;;;;101.53;62.03;;;;;;;24.33;36.35;99201.06;5030836;28;20079;-48
2023/03/08 19:23:08;;;;;;;93.72;57.40;;;;;;;24.33;36.33;99215.00;5029047;28;20046;-48
2023/03/08 19:26:35;;;;;;;100.18;58.65;;;;;;;24.32;36.63;99215.94;5032077;28;20418;-48
2023/03/08 19:28:23;;;;;;;96.40;58.38;;;;;;;24.40;36.30;99227.13;5031099;28;20034;-47
2023/03/08 19:30:51;;;;;;;93.03;57.15;;;;;;;24.33;36.47;99232.50;5022483;28;20029;-48
2023/03/08 19:33:18;;;;;;;93.43;56.03;;;;;;;24.46;36.30;99248.91;5031171;28;20059;-47
2023/03/08 19:35:45;;;;;;;101.90;60.85;;;;;;;24.46;35.88;99264.63;5027677;28;20034;-48
2023/03/08 19:38:13;;;;;;;96.35;57.75;;;;;;;24.38;36.10;99268.22;5027204;28;20113;-48
2023/03/08 19:40:43;;;;;;;92.35;55.38;;;;;;;24.46;35.91;99270.72;5031724;28;20022;-48
2023/03/08 19:43:11;;;;;;;82.68;50.90;;;;;;;24.41;35.83;99276.06;5027015;28;20069;-48
2023/03/08 19:45:38;;;;;;;86.95;49.45;;;;;;;24.27;36.52;99271.00;5033854;28;20029;-49
2023/03/08 19:48:05;;;;;;;80.07;48.33;;;;;;;24.37;36.21;99266.50;5033481;28;20117;-49
2023/03/08 19:50:32;;;;;;;73.50;45.10;;;;;;;24.48;36.17;99275.97;5035206;28;20044;-49
2023/03/08 19:53:00;;;;;;;75.88;42.70;;;;;;;24.42;36.23;99290.00;5032050;28;20060;-49
2023/03/08 19:55:27;;;;;;;66.95;39.75;;;;;;;24.41;36.04;99294.41;5035849;28;20064;-49
2023/03/08 19:57:54;;;;;;;58.33;37.28;;;;;;;24.63;35.63;99295.81;5026103;28;20120;-51
2023/03/08 20:00:22;;;;;;;58.17;36.67;;;;;;;24.77;35.21;99301.72;5031454;28;20083;-48
2023/03/08 20:02:49;;;;;;;58.40;34.30;;;;;;;24.62;35.45;99315.94;5027343;28;20432;-50
2023/03/08 20:05:17;;;;;;;54.42;32.38;;;;;;;24.67;35.71;99318.47;5008911;28;20030;-49
2023/03/08 20:07:45;;;;;;;48.60;30.23;;;;;;;24.64;35.55;99319.41;5029012;28;20021;-51
2023/03/08 20:10:17;;;;;;;51.63;30.63;;;;;;;24.72;35.63;99324.56;5032330;28;20121;-52
2023/03/08 20:12:44;;;;;;;49.10;27.17;;;;;;;24.73;35.32;99335.00;5035078;28;20176;-49
2023/03/08 20:15:13;;;;;;;44.03;26.92;;;;;;;24.69;35.59;99337.69;5034622;28;20041;-49
2023/03/08 20:17:40;;;;;;;46.78;27.30;;;;;;;24.68;35.30;99352.53;5025770;28;20025;-50
2023/03/08 20:20:07;;;;;;;44.75;24.02;;;;;;;24.79;35.10;99354.16;5034709;28;20060;-49
2023/03/08 20:22:35;;;;;;;36.58;22.27;;;;;;;24.75;35.17;99362.97;5034304;28;20064;-48
2023/03/08 20:25:02;;;;;;;34.05;22.17;;;;;;;24.78;35.08;99365.53;5035193;28;20017;-49
2023/03/08 20:27:30;;;;;;;37.80;21.38;;;;;;;24.94;34.77;99361.78;5034917;28;20052;-49
2023/03/08 20:29:57;;;;;;;33.78;19.98;;;;;;;24.79;34.99;99368.13;5022050;28;20045;-50
2023/03/08 20:32:25;;;;;;;34.95;19.98;;;;;;;24.84;35.01;99382.03;5030559;28;20389;-50
2023/03/08 20:34:52;;;;;;;31.60;18.08;;;;;;;24.71;35.37;99375.25;5034718;28;20017;-53
2023/03/08 20:37:20;;;;;;;30.33;18.48;;;;;;;24.67;35.54;99389.28;5025154;28;20116;-48
2023/03/08 20:39:53;;;;;;;29.90;18.10;;;;;;;24.61;35.62;99390.22;5034734;28;20383;-50
2023/03/08 20:42:21;;;;;;;29.10;15.07;;;;;;;24.68;34.96;99391.84;5033012;28;20036;-50
2023/03/08 20:44:49;;;;;;;27.42;14.63;;;;;;;24.79;35.17;99398.75;5034872;28;20022;-49
2023/03/08 20:47:17;;;;;;;26.85;14.07;;;;;;;24.74;34.73;99396.16;5025135;28;20029;-48
2023/03/08 20:49:45;;;;;;;29.05;13.52;;;;;;;24.62;35.13;99409.44;5035287;28;20368;-49
2023/03/08 20:52:13;;;;;;;25.33;13.23;;;;;;;24.66;34.92;99406.75;5035555;28;20120;-49
